Terminal Aerodrome Forecast
Issued by NWS

Home | Current Version | Previous Version | Text Only | Print | Product List | Glossary On
Versions: 1 2 3 4 5 6 7 8 9 10 11 12 13 14 15 16 17 18 19 20
000
FTUS44 KCRP 281120
TAFALI
TAF
KALI 281120Z 2812/2912 14012KT P6SM BKN012 OVC020
      TEMPO 2812/2814 5SM BR
     FM281500 16012G18KT P6SM BKN025
     FM282100 14018G25KT P6SM VCTS BKN040CB OVC250
     FM290300 15012KT P6SM SCT025 OVC040
     FM290700 13005KT P6SM SCT009 BKN012=

USA.gov is the U.S. government's official web portal to all federal, state and local government web resources and services.